.
WxDataArchive / Data Records for 2008-12-26
2008-12-25 December 2008 2008-12-27

Data Records for Friday, 26 December 2008

Time	Temp	Chill	HIndex	Humid	Dewpt	 Wind 	HiWind	WindDir	Rain 	Barom 
-----	----	-----	------	-----	-----	------	------	-------	-----	----- 
00:00	23.9	23.9	23.9	77	17.8	1	4	90	0.00	30.341 
00:05	24.1	24.1	24.1	77	18.0	1	4	112	0.00	30.337 
00:10	24.1	24.1	24.1	77	18.0	2	7	112	0.00	30.333 
00:15	24.1	24.1	24.1	77	18.0	3	7	112	0.00	30.328 
00:20	24.1	24.1	24.1	77	18.0	3	6	112	0.00	30.327 
00:25	24.1	24.1	24.1	77	18.0	2	7	90	0.00	30.325 
00:30	24.1	24.1	24.1	77	18.0	2	7	112	0.00	30.325 
00:35	24.2	24.2	24.2	77	18.1	2	4	90	0.00	30.330 
00:40	24.2	24.2	24.2	77	18.1	2	6	112	0.00	30.328 
00:45	24.2	24.2	24.2	77	18.1	2	5	112	0.00	30.324 
00:50	24.2	24.2	24.2	77	18.1	1	4	112	0.00	30.331 
00:55	24.4	24.4	24.4	80	19.1	2	4	90	0.00	30.321 
01:00	24.4	19.3	24.4	78	18.5	4	9	90	0.00	30.289 
01:05	24.2	24.2	24.2	78	18.3	3	6	90	0.00	30.293 
01:10	24.2	24.2	24.2	78	18.3	3	7	112	0.00	30.285 
01:15	24.4	24.4	24.4	79	18.8	3	7	112	0.00	30.283 
01:20	24.4	24.4	24.4	79	18.8	2	5	112	0.00	30.282 
01:25	24.4	24.4	24.4	79	18.8	3	7	90	0.00	30.283 
01:30	24.4	24.4	24.4	79	18.8	2	5	112	0.00	30.280 
01:35	24.5	24.5	24.5	80	19.2	2	5	112	0.00	30.274 
01:40	24.5	24.5	24.5	79	18.9	2	6	112	0.00	30.269 
01:45	24.5	24.5	24.5	79	18.9	3	6	112	0.00	30.280 
01:50	24.7	24.7	24.7	79	19.1	2	6	112	0.00	30.279 
01:55	24.7	24.7	24.7	79	19.1	2	5	112	0.00	30.282 
02:00	24.7	24.7	24.7	79	19.1	2	4	112	0.00	30.278 
02:05	24.8	24.8	24.8	79	19.2	2	5	112	0.00	30.272 
02:10	24.8	24.8	24.8	79	19.2	3	6	112	0.00	30.267 
02:15	25.0	25.0	25.0	79	19.4	3	7	112	0.00	30.265 
02:20	25.0	25.0	25.0	79	19.4	3	7	112	0.00	30.268 
02:25	25.0	25.0	25.0	79	19.4	3	6	112	0.00	30.268 
02:30	25.1	25.1	25.1	79	19.5	3	6	90	0.00	30.263 
02:35	25.1	25.1	25.1	80	19.8	3	6	112	0.00	30.261 
02:40	25.1	25.1	25.1	80	19.8	3	7	112	0.00	30.258 
02:45	25.3	20.3	25.3	80	20.0	4	10	112	0.00	30.246 
02:50	25.3	25.3	25.3	80	20.0	2	6	112	0.00	30.250 
02:55	25.3	25.3	25.3	80	20.0	3	6	112	0.00	30.255 
03:00	25.4	25.4	25.4	80	20.1	2	5	112	0.00	30.254 
03:05	25.4	25.4	25.4	80	20.1	2	5	112	0.00	30.249 
03:10	25.6	25.6	25.6	80	20.3	3	7	112	0.00	30.250 
03:15	25.6	25.6	25.6	80	20.3	2	5	112	0.00	30.244 
03:20	25.6	25.6	25.6	80	20.3	3	9	112	0.00	30.243 
03:25	25.7	25.7	25.7	79	20.1	3	8	112	0.00	30.242 
03:30	25.7	25.7	25.7	79	20.1	2	6	112	0.00	30.247 
03:35	25.8	25.8	25.8	79	20.2	2	5	112	0.00	30.251 
03:40	25.8	25.8	25.8	79	20.2	2	6	112	0.00	30.254 
03:45	25.8	25.8	25.8	79	20.2	1	3	90	0.00	30.256 
03:50	26.0	26.0	26.0	79	20.4	2	4	112	0.00	30.259 
03:55	26.0	26.0	26.0	79	20.4	1	3	112	0.00	30.258 
04:00	26.1	26.1	26.1	79	20.5	2	3	112	0.00	30.254 
04:05	26.1	26.1	26.1	79	20.5	1	3	112	0.00	30.255 
04:10	26.1	26.1	26.1	78	20.2	1	3	112	0.00	30.260 
04:15	26.3	26.3	26.3	78	20.4	1	3	112	0.00	30.259 
04:20	26.3	26.3	26.3	79	20.7	1	4	112	0.00	30.251 
04:25	26.3	26.3	26.3	78	20.4	3	5	112	0.00	30.241 
04:30	26.3	26.3	26.3	79	20.7	3	6	112	0.00	30.228 
04:35	26.3	26.3	26.3	78	20.4	3	7	112	0.00	30.228 
04:40	26.3	26.3	26.3	78	20.4	2	5	112	0.00	30.224 
04:45	26.4	26.4	26.4	79	20.8	2	5	112	0.00	30.228 
04:50	26.4	26.4	26.4	79	20.8	2	5	112	0.00	30.225 
04:55	26.4	26.4	26.4	79	20.8	2	6	90	0.00	30.224 
05:00	26.6	26.6	26.6	79	21.0	2	5	112	0.00	30.218 
05:05	26.6	26.6	26.6	79	21.0	2	5	112	0.00	30.222 
05:10	26.6	26.6	26.6	79	21.0	2	5	112	0.00	30.221 
05:15	26.6	26.6	26.6	79	21.0	2	6	112	0.00	30.215 
05:20	26.6	26.6	26.6	79	21.0	2	6	112	0.00	30.214 
05:25	26.6	26.6	26.6	79	21.0	2	4	112	0.00	30.216 
05:30	26.6	26.6	26.6	79	21.0	1	3	112	0.00	30.220 
05:35	26.7	26.7	26.7	80	21.4	1	3	112	0.00	30.213 
05:40	26.7	26.7	26.7	79	21.1	2	4	112	0.00	30.212 
05:45	26.7	26.7	26.7	79	21.1	2	4	112	0.00	30.210 
05:50	26.7	26.7	26.7	79	21.1	3	5	112	0.00	30.197 
05:55	26.9	26.9	26.9	79	21.3	3	7	112	0.00	30.195 
06:00	26.9	26.9	26.9	79	21.3	3	6	90	0.00	30.184 
06:05	26.9	26.9	26.9	79	21.3	3	9	90	0.00	30.183 
06:10	26.9	22.2	26.9	79	21.3	4	9	112	0.00	30.171 
06:15	27.0	22.3	27.0	77	20.8	4	7	90	0.00	30.174 
06:20	27.0	27.0	27.0	79	21.4	3	10	112	0.00	30.175 
06:25	27.0	27.0	27.0	79	21.4	3	6	112	0.00	30.174 
06:30	27.2	27.2	27.2	80	21.9	2	5	112	0.00	30.173 
06:35	27.2	27.2	27.2	80	21.9	2	6	112	0.00	30.173 
06:40	27.3	27.3	27.3	80	22.0	3	6	112	0.00	30.164 
06:45	27.3	27.3	27.3	81	22.3	3	7	112	0.00	30.152 
06:50	27.5	27.5	27.5	81	22.4	3	6	90	0.00	30.151 
06:55	27.5	27.5	27.5	81	22.4	3	7	112	0.00	30.160 
07:00	27.5	27.5	27.5	81	22.4	2	6	90	0.00	30.164 
07:05	27.6	27.6	27.6	81	22.5	2	4	112	0.00	30.169 
07:10	27.6	27.6	27.6	81	22.5	3	6	90	0.00	30.160 
07:15	27.8	27.8	27.8	81	22.7	3	7	112	0.00	30.160 
07:20	27.9	27.9	27.9	80	22.5	3	5	90	0.00	30.155 
07:25	28.1	28.1	28.1	80	22.7	3	6	112	0.00	30.153 
07:30	28.1	28.1	28.1	80	22.7	3	6	112	0.00	30.161 
07:35	28.2	28.2	28.2	81	23.1	1	4	112	0.00	30.164 
07:40	28.2	28.2	28.2	81	23.1	1	4	90	0.00	30.168 
07:45	28.2	28.2	28.2	81	23.1	1	3	90	0.00	30.183 
07:50	28.2	28.2	28.2	81	23.1	2	4	112	0.00	30.178 
07:55	28.4	28.4	28.4	81	23.3	2	5	112	0.00	30.166 
08:00	28.2	28.2	28.2	81	23.1	3	7	112	0.00	30.162 
08:05	28.2	23.7	28.2	81	23.1	4	7	90	0.00	30.156 
08:10	28.2	28.2	28.2	81	23.1	3	9	112	0.00	30.150 
08:15	28.2	23.7	28.2	81	23.1	4	8	90	0.00	30.145 
08:20	28.2	23.7	28.2	81	23.1	4	13	112	0.00	30.131 
08:25	28.4	23.9	28.4	82	23.6	4	9	90	0.00	30.132 
08:30	28.4	28.4	28.4	82	23.6	3	5	112	0.00	30.137 
08:35	28.5	28.5	28.5	82	23.7	2	6	112	0.00	30.163 
08:40	28.8	28.8	28.8	82	24.0	2	7	112	0.00	30.161 
08:45	29.0	24.6	29.0	84	24.8	4	7	112	0.00	30.133 
08:50	29.1	23.7	29.1	84	24.9	5	11	112	0.00	30.116 
08:55	29.0	24.6	29.0	85	25.1	4	12	112	0.00	30.118 
09:00	29.1	29.1	29.1	85	25.2	2	7	112	0.00	30.141 
09:05	29.1	24.7	29.1	85	25.2	4	7	112	0.00	30.134 
09:10	29.1	29.1	29.1	85	25.2	3	10	90	0.00	30.130 
09:15	29.3	23.9	29.3	85	25.4	5	9	90	0.00	30.121 
09:20	29.3	23.0	29.3	86	25.6	6	14	112	0.00	30.106 
09:25	29.4	25.1	29.4	86	25.7	4	9	90	0.00	30.113 
09:30	29.4	24.0	29.4	86	25.7	5	10	90	0.00	30.107 
09:35	29.4	29.4	29.4	86	25.7	3	9	112	0.00	30.106 
09:40	29.5	25.2	29.5	86	25.8	4	10	112	0.00	30.101 
09:45	29.5	29.5	29.5	87	26.1	3	7	90	0.00	30.111 
09:50	29.8	29.8	29.8	88	26.7	3	7	90	0.00	30.116 
09:55	30.1	30.1	30.1	89	27.3	3	7	90	0.00	30.116 
10:00	30.1	30.1	30.1	89	27.3	3	7	90	0.00	30.111 
10:05	30.1	30.1	30.1	90	27.5	3	7	112	0.00	30.102 
10:10	30.3	30.3	30.3	90	27.7	1	3	112	0.00	30.126 
10:15	30.3	30.3	30.3	91	28.0	1	4	90	0.00	30.145 
10:20	30.4	30.4	30.4	91	28.1	2	5	112	0.00	30.128 
10:25	30.4	30.4	30.4	91	28.1	1	3	112	0.00	30.139 
10:30	30.6	30.6	30.6	91	28.3	1	2	112	0.00	30.139 
10:35	30.7	30.7	30.7	91	28.4	1	3	112	0.00	30.141 
10:40	30.7	30.7	30.7	91	28.4	2	4	112	0.00	30.130 
10:45	30.7	30.7	30.7	91	28.4	2	4	112	0.00	30.137 
10:50	30.7	30.7	30.7	90	28.1	2	5	112	0.00	30.134 
10:55	30.9	30.9	30.9	90	28.3	2	5	112	0.00	30.134 
11:00	30.9	30.9	30.9	90	28.3	2	6	158	0.00	30.132 
11:05	30.9	30.9	30.9	91	28.6	1	4	158	0.00	30.132 
11:10	31.0	31.0	31.0	91	28.7	2	3	158	0.00	30.129 
11:15	31.0	31.0	31.0	91	28.7	2	5	158	0.00	30.119 
11:20	31.0	31.0	31.0	91	28.7	2	7	158	0.00	30.125 
11:25	31.0	31.0	31.0	91	28.7	1	4	158	0.00	30.123 
11:30	31.2	31.2	31.2	91	28.9	1	3	158	0.00	30.118 
11:35	31.2	31.2	31.2	91	28.9	1	3	158	0.00	30.115 
11:40	31.3	31.3	31.3	91	29.0	1	4	158	0.00	30.110 
11:45	31.5	31.5	31.5	91	29.2	1	4	158	0.00	30.101 
11:50	31.6	31.6	31.6	91	29.3	1	2	158	0.00	30.103 
11:55	31.8	31.8	31.8	91	29.5	0	2	158	0.00	30.103 
12:00	31.8	31.8	31.8	92	29.7	0	2	158	0.00	30.096 
12:05	31.9	31.9	31.9	92	29.8	1	4	158	0.00	30.091 
12:10	31.9	31.9	31.9	92	29.8	1	3	112	0.00	30.091 
12:15	31.9	31.9	31.9	92	29.8	1	3	112	0.00	30.082 
12:20	31.9	31.9	31.9	92	29.8	1	3	135	0.00	30.086 
12:25	31.9	31.9	31.9	92	29.8	1	3	112	0.00	30.087 
12:30	31.9	31.9	31.9	92	29.8	0	2	90	0.00	30.085 
12:35	32.1	32.1	32.1	92	30.0	0	2	112	0.00	30.085 
12:40	32.1	32.1	32.1	92	30.0	0	2	112	0.00	30.087 
12:45	32.1	32.1	32.1	92	30.0	1	3	135	0.00	30.086 
12:50	32.2	32.2	32.2	92	30.1	0	2	135	0.00	30.083 
12:55	32.2	32.2	32.2	93	30.4	0	2	112	0.00	30.078 
13:00	32.4	32.4	32.4	93	30.6	0	1	112	0.00	30.074 
13:05	32.4	32.4	32.4	93	30.6	0	1	112	0.00	30.074 
13:10	32.4	32.4	32.4	93	30.6	1	3	112	0.00	30.064 
13:15	32.5	32.5	32.5	93	30.7	1	3	112	0.00	30.063 
13:20	32.5	32.5	32.5	93	30.7	1	3	112	0.00	30.059 
13:25	32.5	32.5	32.5	93	30.7	1	2	112	0.00	30.059 
13:30	32.5	32.5	32.5	93	30.7	0	1	112	0.00	30.061 
13:35	32.5	32.5	32.5	94	31.0	0	1	112	0.00	30.057 
13:40	32.7	32.7	32.7	94	31.2	1	2	112	0.00	30.053 
13:45	32.7	32.7	32.7	94	31.2	1	3	112	0.00	30.045 
13:50	32.7	32.7	32.7	94	31.2	0	2	112	0.00	30.044 
13:55	32.7	32.7	32.7	94	31.2	0	2	112	0.00	30.046 
14:00	32.8	32.8	32.8	94	31.3	0	1	112	0.00	30.046 
14:05	32.8	32.8	32.8	94	31.3	0	2	112	0.00	30.045 
14:10	32.8	32.8	32.8	94	31.3	0	2	112	0.00	30.045 
14:15	32.9	32.9	32.9	94	31.4	0	1	112	0.00	30.044 
14:20	32.9	32.9	32.9	94	31.4	0	2	112	0.00	30.042 
14:25	33.1	33.1	33.1	94	31.6	0	1	112	0.00	30.041 
14:30	33.1	33.1	33.1	94	31.6	0	2	112	0.00	30.040 
14:35	33.2	33.2	33.2	94	31.7	0	1	112	0.00	30.041 
14:40	33.4	33.4	33.4	95	32.1	0	1	112	0.00	30.037 
14:45	33.4	33.4	33.4	95	32.1	0	1	112	0.00	30.035 
14:50	33.5	33.5	33.5	95	32.2	0	2	112	0.00	30.030 
14:55	33.7	33.7	33.7	95	32.4	0	1	112	0.00	30.028 
15:00	33.8	33.8	33.8	95	32.5	0	1	112	0.00	30.030 
15:05	34.0	34.0	34.0	95	32.7	0	1	112	0.00	30.026 
15:10	34.0	34.0	34.0	95	32.7	0	1	112	0.01	30.026 
15:15	34.0	34.0	34.0	95	32.7	0	2	112	0.00	30.024 
15:20	34.1	34.1	34.1	95	32.8	0	2	112	0.00	30.024 
15:25	34.1	34.1	34.1	95	32.8	0	1	112	0.00	30.019 
15:30	34.3	34.3	34.3	95	33.0	0	1	112	0.00	30.021 
15:35	34.3	34.3	34.3	95	33.0	0	1	112	0.00	30.022 
15:40	34.4	34.4	34.4	95	33.1	0	1	112	0.00	30.021 
15:45	34.4	34.4	34.4	95	33.1	0	1	112	0.00	30.023 
15:50	34.6	34.6	34.6	95	33.3	0	1	112	0.00	30.023 
15:55	34.7	34.7	34.7	96	33.7	0	1	112	0.00	30.024 
16:00	34.7	34.7	34.7	96	33.7	0	1	112	0.00	30.025 
16:05	34.9	34.9	34.9	96	33.9	0	0	---	0.00	30.023 
16:10	34.9	34.9	34.9	96	33.9	0	1	112	0.00	30.021 
16:15	35.0	35.0	35.0	96	34.0	0	1	112	0.00	30.023 
16:20	35.2	35.2	35.2	96	34.2	0	1	112	0.00	30.023 
16:25	35.3	35.3	35.3	96	34.3	0	2	112	0.00	30.021 
16:30	35.5	35.5	35.5	96	34.5	0	1	112	0.00	30.020 
16:35	35.6	35.6	35.6	96	34.6	0	1	112	0.00	30.022 
16:40	35.8	35.8	35.8	96	34.8	0	2	112	0.00	30.019 
16:45	35.9	35.9	35.9	96	34.9	0	1	112	0.00	30.021 
16:50	35.9	35.9	35.9	96	34.9	0	1	112	0.00	30.016 
16:55	36.0	36.0	36.0	96	35.0	0	1	112	0.00	30.020 
17:00	36.0	36.0	36.0	96	35.0	0	1	112	0.00	30.020 
17:05	36.2	36.2	36.2	96	35.2	0	1	112	0.00	30.019 
17:10	36.3	36.3	36.3	96	35.3	0	1	112	0.00	30.017 
17:15	36.5	36.5	36.5	96	35.5	0	1	112	0.00	30.018 
17:20	36.5	36.5	36.5	96	35.5	0	1	112	0.00	30.015 
17:25	36.5	36.5	36.5	96	35.5	0	1	112	0.01	30.017 
17:30	36.5	36.5	36.5	96	35.5	0	1	112	0.01	30.015 
17:35	36.5	36.5	36.5	96	35.5	0	1	112	0.00	30.015 
17:40	36.5	36.5	36.5	96	35.5	0	1	112	0.01	30.013 
17:45	36.6	36.6	36.6	96	35.6	0	1	112	0.00	30.011 
17:50	36.6	36.6	36.6	96	35.6	0	1	112	0.01	30.009 
17:55	36.6	36.6	36.6	96	35.6	0	1	112	0.00	30.009 
18:00	36.8	36.8	36.8	96	35.8	0	1	112	0.00	30.008 
18:05	36.9	36.9	36.9	96	35.9	0	1	112	0.00	30.007 
18:10	37.0	37.0	37.0	96	36.0	0	1	112	0.00	30.006 
18:15	37.2	37.2	37.2	96	36.2	0	1	112	0.01	30.006 
18:20	37.2	37.2	37.2	96	36.2	0	1	112	0.00	30.006 
18:25	37.2	37.2	37.2	96	36.2	0	1	112	0.00	30.006 
18:30	37.3	37.3	37.3	96	36.3	0	1	112	0.00	30.007 
18:35	37.3	37.3	37.3	96	36.3	0	0	---	0.00	30.006 
18:40	37.3	37.3	37.3	96	36.3	0	2	112	0.00	30.002 
18:45	37.3	37.3	37.3	96	36.3	0	1	112	0.00	29.994 
18:50	37.3	37.3	37.3	96	36.3	0	1	112	0.01	30.001 
18:55	37.3	37.3	37.3	96	36.3	0	1	112	0.00	29.998 
19:00	37.3	37.3	37.3	97	36.5	0	2	112	0.00	29.992 
19:05	37.3	37.3	37.3	97	36.5	0	2	112	0.00	29.991 
19:10	37.3	37.3	37.3	97	36.5	0	0	---	0.00	29.993 
19:15	37.5	37.5	37.5	97	36.7	0	1	112	0.00	29.993 
19:20	37.3	37.3	37.3	97	36.5	0	0	---	0.00	29.991 
19:25	37.3	37.3	37.3	97	36.5	0	0	---	0.01	29.992 
19:30	37.3	37.3	37.3	97	36.5	0	1	112	0.00	29.991 
19:35	37.5	37.5	37.5	97	36.7	0	1	112	0.00	29.991 
19:40	38.2	38.2	38.2	97	37.4	0	1	112	0.00	29.991 
19:45	39.5	39.5	39.5	97	38.7	0	2	112	0.00	29.990 
19:50	40.6	40.6	40.6	97	39.8	0	1	112	0.00	29.987 
19:55	41.2	41.2	41.2	97	40.4	0	1	112	0.01	29.986 
20:00	42.1	42.1	42.1	97	41.3	0	2	112	0.00	29.984 
20:05	42.8	42.8	42.8	98	42.3	0	2	112	0.00	29.982 
20:10	43.3	43.3	43.3	98	42.8	1	3	112	0.00	29.980 
20:15	43.6	43.6	43.6	98	43.1	0	2	45	0.00	29.981 
20:20	43.8	43.8	43.8	97	43.0	0	2	45	0.01	29.982 
20:25	43.8	43.8	43.8	97	43.0	0	2	45	0.00	29.982 
20:30	43.9	43.9	43.9	98	43.4	0	1	45	0.00	29.981 
20:35	44.1	44.1	44.1	98	43.6	0	1	45	0.00	29.979 
20:40	44.3	44.3	44.3	98	43.8	0	2	0	0.01	29.978 
20:45	44.6	44.6	44.6	98	44.1	0	2	0	0.00	29.971 
20:50	45.2	45.2	45.2	98	44.7	1	3	0	0.00	29.975 
20:55	45.7	45.7	45.7	98	45.2	1	2	22	0.00	29.974 
21:00	46.1	46.1	46.1	98	45.6	1	3	0	0.00	29.971 
21:05	46.4	46.4	46.4	98	45.9	0	2	68	0.00	29.974 
21:10	46.7	46.7	46.7	98	46.2	0	2	45	0.01	29.972 
21:15	47.0	47.0	47.0	98	46.5	1	3	45	0.00	29.976 
21:20	47.3	47.3	47.3	98	46.8	1	3	45	0.00	29.974 
21:25	47.6	47.6	47.6	98	47.1	1	5	45	0.00	29.974 
21:30	47.9	47.9	47.9	98	47.4	0	2	248	0.01	29.970 
21:35	47.9	47.9	47.9	98	47.4	1	3	45	0.00	29.971 
21:40	48.2	48.2	48.2	98	47.7	1	2	45	0.00	29.971 
21:45	48.3	48.3	48.3	98	47.8	0	3	68	0.00	29.972 
21:50	48.5	48.5	48.5	98	48.0	1	3	68	0.00	29.971 
21:55	48.8	48.8	48.8	98	48.3	0	1	22	0.01	29.971 
22:00	49.6	49.6	49.6	98	49.1	1	4	248	0.00	29.970 
22:05	49.9	49.9	49.9	98	49.4	1	4	248	0.00	29.971 
22:10	50.1	50.1	50.1	98	49.6	1	4	248	0.00	29.970 
22:15	50.2	50.2	50.2	98	49.7	0	2	0	0.00	29.969 
22:20	50.4	50.4	50.4	98	49.9	1	3	248	0.01	29.970 
22:25	50.7	50.7	50.7	98	50.2	1	5	270	0.00	29.967 
22:30	50.8	50.8	50.8	98	50.3	1	4	270	0.00	29.970 
22:35	51.1	51.1	51.1	98	50.6	1	4	248	0.00	29.966 
22:40	51.3	51.3	51.3	98	50.8	1	3	248	0.00	29.966 
22:45	51.3	51.3	51.3	98	50.8	1	2	270	0.01	29.962 
22:50	51.3	51.3	51.3	98	50.8	1	3	0	0.00	29.964 
22:55	51.6	51.6	51.6	98	51.1	1	3	248	0.00	29.965 
23:00	51.4	51.4	51.4	98	50.9	0	3	292	0.00	29.968 
23:05	51.3	51.3	51.3	98	50.8	1	3	22	0.01	29.969 
23:10	51.6	51.6	51.6	98	51.1	1	5	0	0.00	29.968 
23:15	51.6	51.6	51.6	98	51.1	1	4	338	0.00	29.967 
23:20	51.6	51.6	51.6	98	51.1	1	3	112	0.00	29.967 
23:25	51.7	51.7	51.7	98	51.2	1	3	112	0.00	29.965 
23:30	52.0	52.0	52.0	98	51.5	1	5	135	0.01	29.966 
23:35	52.0	52.0	52.0	98	51.5	1	4	45	0.00	29.968 
23:40	52.0	52.0	52.0	98	51.5	1	4	270	0.00	29.967 
23:45	52.0	52.0	52.0	98	51.5	1	4	112	0.00	29.966 
23:50	51.9	51.9	51.9	98	51.4	1	3	338	0.00	29.964 
23:55	52.0	52.0	52.0	98	51.5	1	2	0	0.00	29.966 

CoCoRaHS
IN-AL-39
A2 Web Hosting
Creative Commons License
GoDaddy
search engine by freefind advanced

loaded 2018-11-17 15:16:44 • last modified 2010-11-18 10:43:29
Privacy PolicyDisclaimer
• wx.awcolley.com is powered by PmWiki v.2002016 •
• all content (unless otherwise noted) © 2018 A W Colley